Time;durP1;ratioP1;P1;durP2;ratioP2;P2;SDS_P1;SDS_P2;PMS_P1;PMS_P2;Temp;Humidity;BMP_temperature;BMP_pressure;BME280_temperature;BME280_humidity;BME280_pressure;Samples;Min_cycle;Max_cycle;Signal;HPM_P1;HPM_P2
2022/03/09 00:02:40;;;;;;;14.48;7.32;;;;;;;-139.48;100.00;61774.03;5011850;28;20076;-72
2022/03/09 00:05:24;;;;;;;17.33;8.48;;;;;;;-139.48;100.00;61774.03;5012221;28;20089;-72
2022/03/09 00:08:08;;;;;;;18.20;8.75;;;;;;;-139.48;100.00;61774.03;5012274;28;20048;-72
2022/03/09 00:10:52;;;;;;;16.25;7.85;;;;;;;-139.48;100.00;61774.03;5049245;23;20141;-69
2022/03/09 00:13:36;;;;;;;15.07;7.72;;;;;;;-139.48;100.00;61774.03;5045775;28;20470;-70
2022/03/09 00:16:20;;;;;;;11.02;7.15;;;;;;;-139.48;100.00;61774.03;5031710;28;20047;-69
2022/03/09 00:19:04;;;;;;;13.00;7.22;;;;;;;-139.48;100.00;61774.03;5031438;28;20048;-69
2022/03/09 00:21:48;;;;;;;18.13;8.38;;;;;;;-139.48;100.00;61774.03;5011921;28;20147;-69
2022/03/09 00:24:32;;;;;;;15.52;7.65;;;;;;;-139.48;100.00;61774.03;5012761;28;20064;-69
2022/03/09 00:27:17;;;;;;;15.93;8.55;;;;;;;-139.48;100.00;61774.03;5014068;28;20421;-70
2022/03/09 00:30:02;;;;;;;13.70;7.38;;;;;;;-139.48;100.00;61774.03;5015623;28;20426;-70
2022/03/09 00:32:46;;;;;;;14.73;7.35;;;;;;;-139.48;100.00;61774.03;5015422;28;20076;-69
2022/03/09 00:35:30;;;;;;;17.58;7.40;;;;;;;-139.48;100.00;61774.03;5016559;28;20139;-69
2022/03/09 00:38:14;;;;;;;14.93;7.93;;;;;;;-139.48;100.00;61774.03;5029387;28;20049;-70
2022/03/09 00:40:58;;;;;;;18.02;8.48;;;;;;;-139.48;100.00;61774.03;5015602;28;20094;-69
2022/03/09 00:43:42;;;;;;;17.52;8.48;;;;;;;-139.48;52.17;61774.03;5015358;28;20080;-68
2022/03/09 00:46:26;;;;;;;11.93;7.05;;;;;;;0.82;61.96;101094.28;5001489;28;20071;-69
2022/03/09 00:49:10;;;;;;;15.07;7.63;;;;;;;0.88;61.98;101088.78;5016459;28;20527;-69
2022/03/09 00:51:53;;;;;;;;;;;;;;;0.86;64.04;101090.59;5017048;28;20068;-70
2022/03/09 00:54:37;;;;;;;15.45;7.97;;;;;;;0.78;71.54;101094.44;5015414;28;19970;-69
2022/03/09 00:57:21;;;;;;;13.88;7.32;;;;;;;0.62;79.16;101096.03;5016346;28;20133;-70
2022/03/09 01:00:06;;;;;;;13.43;8.18;;;;;;;0.28;77.43;101107.00;5029136;28;20096;-70
2022/03/09 01:02:50;;;;;;;13.70;7.38;;;;;;;0.14;84.27;101101.41;5014901;28;20053;-70
2022/03/09 01:05:34;;;;;;;14.07;7.47;;;;;;;0.09;100.00;78850.22;5014951;28;20117;-70
2022/03/09 01:08:18;;;;;;;;;;;;;;;-139.48;100.00;61774.03;5015919;28;20173;-69
2022/03/09 01:11:03;;;;;;;10.50;5.97;;;;;;;-139.48;100.00;61774.03;5014679;28;19952;-69
2022/03/09 01:13:47;;;;;;;13.43;7.50;;;;;;;-139.48;100.00;61774.03;5014974;28;20345;-69
2022/03/09 01:16:31;;;;;;;12.10;6.95;;;;;;;-139.48;100.00;61774.03;5028991;28;20049;-69
2022/03/09 01:19:14;;;;;;;;;;;;;;;-139.48;100.00;61774.03;5016396;28;20057;-69
2022/03/09 01:21:58;;;;;;;15.63;6.90;;;;;;;-139.48;100.00;61774.03;5015942;28;19920;-69
2022/03/09 01:24:42;;;;;;;;;;;;;;;-139.48;100.00;61774.03;5016048;28;20153;-69
2022/03/09 01:27:26;;;;;;;16.35;7.38;;;;;;;-139.48;100.00;61774.03;5014722;28;19920;-69
2022/03/09 01:30:10;;;;;;;;;;;;;;;-139.48;100.00;61774.03;5014831;28;20103;-70
2022/03/09 01:32:57;;;;;;;13.68;6.55;;;;;;;-139.48;100.00;61774.03;5014649;28;20281;-69
2022/03/09 01:35:41;;;;;;;12.07;6.22;;;;;;;-139.48;100.00;61774.03;5014632;28;20405;-69
2022/03/09 01:38:25;;;;;;;18.95;6.78;;;;;;;-139.48;100.00;61774.03;5014731;28;20052;-70
2022/03/09 01:41:09;;;;;;;;;;;;;;;-139.48;100.00;61774.03;5028688;28;20543;-69
2022/03/09 01:44:09;;;;;;;12.25;6.65;;;;;;;-139.48;100.00;61774.03;5014518;28;19923;-69
2022/03/09 01:46:54;;;;;;;14.27;6.22;;;;;;;-139.48;100.00;61774.03;5014694;28;20049;-69
2022/03/09 01:49:39;;;;;;;17.65;7.25;;;;;;;-139.48;100.00;61774.03;5014344;28;20088;-69
2022/03/09 01:52:23;;;;;;;17.58;6.63;;;;;;;-139.48;100.00;61774.03;5014500;28;20512;-69
2022/03/09 01:55:08;;;;;;;13.48;6.72;;;;;;;-139.48;100.00;61774.03;5014245;28;20080;-70
2022/03/09 01:57:53;;;;;;;10.63;5.88;;;;;;;-139.48;100.00;61774.03;5015560;28;20044;-69
2022/03/09 02:00:36;;;;;;;;;;;;;;;-139.48;100.00;61774.03;5015482;28;20446;-69
2022/03/09 02:03:21;;;;;;;17.17;7.38;;;;;;;-139.48;100.00;61774.03;5015414;28;19920;-69
2022/03/09 02:06:04;;;;;;;;;;;;;;;-139.48;100.00;61774.03;5015354;28;20049;-69
2022/03/09 02:11:51;;;;;;;15.85;6.63;;;;;;;-139.48;100.00;61774.03;5014118;28;20402;-69
2022/03/09 02:14:36;;;;;;;;;;;;;;;-139.48;100.00;61774.03;5015098;28;20053;-69
2022/03/09 02:17:26;;;;;;;17.45;8.23;;;;;;;-139.48;100.00;61774.03;4999816;28;19945;-69
2022/03/09 02:20:10;;;;;;;13.95;7.25;;;;;;;-139.48;100.00;61774.03;5013944;28;20052;-69
2022/03/09 02:22:55;;;;;;;13.27;6.90;;;;;;;-139.48;100.00;61774.03;5027905;28;20048;-69
2022/03/09 02:25:39;;;;;;;15.52;7.80;;;;;;;-139.48;100.00;61774.03;5013695;28;20052;-70
2022/03/09 02:28:22;;;;;;;18.05;8.15;;;;;;;-139.48;100.00;61774.03;5027666;28;20069;-69
2022/03/09 02:31:06;;;;;;;17.85;7.90;;;;;;;-139.48;100.00;61774.03;5014563;28;20048;-69
2022/03/09 02:33:53;;;;;;;17.35;8.18;;;;;;;-139.48;100.00;61774.03;5013271;28;20053;-69
2022/03/09 02:36:37;;;;;;;14.10;7.32;;;;;;;-139.48;100.00;61774.03;5014333;28;20100;-69
2022/03/09 02:39:21;;;;;;;;;;;;;;;-139.48;100.00;61774.03;5013793;28;20048;-69
2022/03/09 02:42:07;;;;;;;14.50;7.60;;;;;;;-139.48;100.00;61774.03;5014455;28;19919;-69
2022/03/09 02:44:51;;;;;;;13.68;7.13;;;;;;;-139.48;100.00;61774.03;5013131;28;20045;-69
2022/03/09 02:47:38;;;;;;;16.63;8.05;;;;;;;-139.48;100.00;61774.03;5013242;28;20049;-69
2022/03/09 02:50:22;;;;;;;14.40;7.07;;;;;;;-139.48;100.00;61774.03;5011960;28;20081;-69
2022/03/09 02:53:06;;;;;;;16.13;8.52;;;;;;;-139.48;100.00;61774.03;5014205;28;20045;-69
2022/03/09 02:55:50;;;;;;;16.38;7.45;;;;;;;-139.48;100.00;61774.03;5014170;28;20100;-70
2022/03/09 02:58:34;;;;;;;;;;;;;;;-139.48;100.00;61774.03;5013231;28;20560;-70
2022/03/09 03:01:18;;;;;;;14.60;8.35;;;;;;;-139.48;100.00;61774.03;5013759;28;19936;-70
2022/03/09 03:04:02;;;;;;;;;;;;;;;-139.48;100.00;61774.03;5014537;28;20052;-69
2022/03/09 03:06:46;;;;;;;18.90;7.70;;;;;;;-139.48;100.00;61774.03;5012966;28;19963;-70
2022/03/09 03:09:29;;;;;;;14.93;8.30;;;;;;;-139.48;100.00;61774.03;5012641;28;20123;-70
2022/03/09 03:12:13;;;;;;;;;;;;;;;-139.48;100.00;61774.03;5014150;28;20103;-70
2022/03/09 03:14:57;;;;;;;14.20;6.20;;;;;;;-139.48;100.00;61774.03;5013627;28;20308;-70
2022/03/09 03:17:41;;;;;;;;;;;;;;;-139.48;100.00;61774.03;5013252;28;20053;-70
2022/03/09 03:20:25;;;;;;;14.68;7.60;;;;;;;-139.48;100.00;61774.03;4999004;28;20384;-70
2022/03/09 03:23:09;;;;;;;14.60;7.85;;;;;;;-139.48;100.00;61774.03;5026667;28;20117;-69
2022/03/09 03:25:54;;;;;;;;;;;;;;;-139.48;100.00;61774.03;5027041;28;20129;-69
2022/03/09 03:28:38;;;;;;;15.52;7.68;;;;;;;-139.48;100.00;61774.03;5012422;28;20388;-69
2022/03/09 03:31:22;;;;;;;15.48;8.85;;;;;;;-139.48;100.00;61774.03;5013320;28;20472;-69
2022/03/09 03:34:06;;;;;;;15.48;8.52;;;;;;;-139.48;100.00;61774.03;5013446;28;20053;-69
2022/03/09 03:36:49;;;;;;;;;;;;;;;-139.48;100.00;61774.03;5013932;28;20056;-69
2022/03/09 03:39:34;;;;;;;14.18;7.90;;;;;;;-139.48;100.00;61774.03;5012147;28;19940;-69
2022/03/09 03:42:18;;;;;;;20.08;8.82;;;;;;;-139.48;100.00;61774.03;5012640;28;20052;-69
2022/03/09 03:45:02;;;;;;;14.93;8.18;;;;;;;-139.48;100.00;61774.03;5013310;28;20088;-69
2022/03/09 03:47:46;;;;;;;;;;;;;;;-139.48;100.00;61774.03;5013899;28;20461;-69
2022/03/09 03:50:30;;;;;;;17.77;8.68;;;;;;;-139.48;100.00;61774.03;5012089;28;19924;-70
2022/03/09 03:53:14;;;;;;;;;;;;;;;-139.48;100.00;61774.03;5026577;28;20100;-69
2022/03/09 03:55:58;;;;;;;21.55;8.35;;;;;;;-139.48;100.00;61774.03;5012364;28;19936;-69
2022/03/09 03:58:42;;;;;;;;;;;;;;;-139.48;100.00;61774.03;5012582;28;20053;-69
2022/03/09 04:01:26;;;;;;;18.15;7.95;;;;;;;-139.48;100.00;61774.03;5012583;28;20332;-69
2022/03/09 04:04:10;;;;;;;17.20;8.10;;;;;;;-139.48;100.00;61774.03;5013040;28;20187;-69
2022/03/09 04:06:54;;;;;;;14.25;7.80;;;;;;;-139.48;100.00;61774.03;5012832;28;20048;-69
2022/03/09 04:09:38;;;;;;;;;;;;;;;-139.48;100.00;61774.03;5012268;28;20108;-70
2022/03/09 04:12:23;;;;;;;15.50;7.97;;;;;;;-139.48;100.00;61774.03;5012979;28;19967;-69
2022/03/09 04:15:08;;;;;;;17.73;8.57;;;;;;;-139.48;100.00;61774.03;5012990;28;20096;-69
2022/03/09 04:17:52;;;;;;;17.77;8.32;;;;;;;-139.48;100.00;61774.03;5011952;28;20061;-67
2022/03/09 04:20:35;;;;;;;;;;;;;;;-139.48;100.00;61774.03;5013567;28;20081;-69
2022/03/09 04:23:19;;;;;;;15.55;7.68;;;;;;;-139.48;100.00;61774.03;5011776;28;19980;-69
2022/03/09 04:26:06;;;;;;;16.98;8.13;;;;;;;-139.48;100.00;61774.03;5013558;28;20069;-68
2022/03/09 04:28:50;;;;;;;17.55;8.48;;;;;;;-139.48;100.00;61774.03;5012712;28;20107;-69
2022/03/09 04:31:34;;;;;;;;;;;;;;;-139.48;100.00;61774.03;5012288;28;20052;-69
2022/03/09 04:34:18;;;;;;;15.65;8.25;;;;;;;-139.48;100.00;61774.03;5012576;28;19939;-69
2022/03/09 04:37:02;;;;;;;;;;;;;;;-139.48;100.00;61774.03;5013212;28;20045;-69
2022/03/09 04:39:46;;;;;;;18.60;8.23;;;;;;;-139.48;100.00;61774.03;5012558;28;19944;-69
2022/03/09 04:42:30;;;;;;;14.77;8.30;;;;;;;-139.48;100.00;61774.03;5013065;28;20440;-69
2022/03/09 04:45:14;;;;;;;13.85;8.25;;;;;;;-139.48;100.00;61774.03;5011641;28;20045;-69
2022/03/09 04:47:58;;;;;;;;;;;;;;;-139.48;100.00;61774.03;5012865;28;20048;-69
2022/03/09 04:50:42;;;;;;;15.85;8.00;;;;;;;-139.48;100.00;61774.03;4997865;28;19919;-69
2022/03/09 04:53:26;;;;;;;;;;;;;;;-139.48;100.00;61774.03;5013461;28;20549;-70
2022/03/09 04:56:11;;;;;;;15.77;7.95;;;;;;;-139.48;100.00;61774.03;5011506;28;19971;-70
2022/03/09 04:58:55;;;;;;;20.10;9.35;;;;;;;-139.48;100.00;61774.03;5012639;28;20104;-70
2022/03/09 05:01:39;;;;;;;18.20;9.13;;;;;;;-139.48;100.00;61774.03;5011399;28;20057;-69
2022/03/09 05:04:23;;;;;;;;;;;;;;;-139.48;100.00;61774.03;5012731;28;20052;-70
2022/03/09 05:07:07;;;;;;;18.05;8.25;;;;;;;-139.48;100.00;61774.03;5012378;28;19920;-70
2022/03/09 05:09:51;;;;;;;;;;;;;;;-139.48;100.00;61774.03;5012609;28;20512;-70
2022/03/09 05:12:35;;;;;;;16.70;6.50;;;;;;;-139.48;100.00;61774.03;5011443;28;20440;-69
2022/03/09 05:15:19;;;;;;;20.65;9.10;;;;;;;-139.48;100.00;61774.03;5013842;28;20061;-70
2022/03/09 05:18:03;;;;;;;;;;;;;;;-139.48;100.00;61774.03;5015408;28;20053;-70
2022/03/09 05:20:47;;;;;;;12.77;6.47;;;;;;;-139.48;100.00;61774.03;5014635;28;19920;-70
2022/03/09 05:23:31;;;;;;;;;;;;;;;-139.48;100.00;61774.03;5016689;28;20049;-70
2022/03/09 05:26:15;;;;;;;22.65;9.15;;;;;;;-139.48;100.00;61774.03;5014953;28;20396;-70
2022/03/09 05:28:59;;;;;;;;;;;;;;;-139.48;100.00;61774.03;5028993;28;20053;-70
2022/03/09 05:31:44;;;;;;;17.67;8.57;;;;;;;-139.48;100.00;61774.03;5016274;28;19967;-70
2022/03/09 05:34:28;;;;;;;21.50;9.13;;;;;;;-139.48;100.00;61774.03;5014373;28;20052;-70
2022/03/09 05:37:13;;;;;;;;;;;;;;;-139.48;100.00;61774.03;5015803;28;20096;-70
2022/03/09 05:39:56;;;;;;;;;;;;;;;-139.48;100.00;61774.03;5014752;28;19919;-70
2022/03/09 05:42:43;;;;;;;13.50;6.57;;;;;;;-139.48;100.00;61774.03;5015353;28;20032;-70
2022/03/09 05:45:26;;;;;;;17.55;8.38;;;;;;;-139.48;100.00;61774.03;5015281;28;20489;-70
2022/03/09 05:48:10;;;;;;;;;;;;;;;-139.48;100.00;61774.03;5015907;28;20100;-70
2022/03/09 05:50:54;;;;;;;16.83;8.68;;;;;;;-139.48;100.00;61774.03;5015151;28;19920;-70
2022/03/09 05:53:39;;;;;;;17.40;8.88;;;;;;;-139.48;100.00;61774.03;5015308;28;20096;-70
2022/03/09 05:56:23;;;;;;;17.48;8.60;;;;;;;-139.48;100.00;61774.03;5015028;28;20088;-70
2022/03/09 05:59:08;;;;;;;19.90;9.20;;;;;;;-139.48;100.00;61774.03;5014252;28;20162;-70
2022/03/09 06:01:51;;;;;;;;;;;;;;;-139.48;100.00;61774.03;5015630;28;20072;-70
2022/03/09 06:04:36;;;;;;;26.50;8.63;;;;;;;-139.48;100.00;61774.03;5013937;28;19998;-69
2022/03/09 06:07:19;;;;;;;24.10;9.70;;;;;;;-139.48;100.00;61774.03;5014051;28;20456;-70
2022/03/09 06:10:04;;;;;;;19.48;8.45;;;;;;;-139.48;100.00;61774.03;4999906;28;20056;-70
2022/03/09 06:12:48;;;;;;;19.48;9.00;;;;;;;-139.48;100.00;61774.03;5027713;22;20056;-73
2022/03/09 06:15:32;;;;;;;17.98;8.90;;;;;;;-139.48;100.00;61774.03;5014853;28;20136;-72
2022/03/09 06:18:16;;;;;;;17.40;8.10;;;;;;;-139.48;100.00;61774.03;5013770;28;20048;-73
2022/03/09 06:21:00;;;;;;;19.67;9.15;;;;;;;-139.48;100.00;61774.03;5000129;28;20462;-71
2022/03/09 06:23:44;;;;;;;19.38;8.38;;;;;;;-139.48;100.00;61774.03;4994884;28;20410;-73
2022/03/09 06:26:28;;;;;;;21.15;8.82;;;;;;;-139.48;100.00;61774.03;4994652;28;20136;-72
2022/03/09 06:29:12;;;;;;;19.15;9.32;;;;;;;-139.48;100.00;61774.03;4995030;28;20112;-71
2022/03/09 06:31:56;;;;;;;18.25;8.80;;;;;;;-139.48;100.00;61774.03;4979897;28;20057;-71
2022/03/09 06:34:40;;;;;;;20.10;8.98;;;;;;;-139.48;100.00;61774.03;4993581;28;20430;-73
2022/03/09 06:37:24;;;;;;;17.73;8.68;;;;;;;-139.48;100.00;61774.03;4993635;28;20049;-72
2022/03/09 06:40:08;;;;;;;;;;;;;;;-139.48;100.00;61774.03;4995071;28;20120;-71
2022/03/09 06:42:52;;;;;;;14.25;6.90;;;;;;;-139.48;100.00;61774.03;4994945;28;20021;-70
2022/03/09 06:45:36;;;;;;;26.10;11.80;;;;;;;-139.48;100.00;61774.03;4993573;28;20053;-72
2022/03/09 06:48:20;;;;;;;36.90;15.02;;;;;;;-139.48;100.00;61774.03;4993724;28;20057;-72
2022/03/09 06:51:04;;;;;;;;;;;;;;;-139.48;100.00;61774.03;4993992;28;20053;-71
2022/03/09 06:53:48;;;;;;;27.02;12.90;;;;;;;-139.48;100.00;61774.03;4994410;28;20067;-72
2022/03/09 06:56:32;;;;;;;;;;;;;;;-139.48;100.00;61774.03;4993681;28;20072;-72
2022/03/09 06:59:16;;;;;;;19.10;10.38;;;;;;;-139.48;100.00;61774.03;4994309;28;20342;-71
2022/03/09 07:01:59;;;;;;;;;;;;;;;-139.48;100.00;61774.03;4994581;28;20115;-73
2022/03/09 07:04:43;;;;;;;25.48;10.38;;;;;;;-139.48;100.00;61774.03;4994678;28;19971;-71
2022/03/09 07:07:27;;;;;;;26.88;11.65;;;;;;;-139.48;100.00;61774.03;4994140;28;20057;-73
2022/03/09 07:10:13;;;;;;;19.85;10.38;;;;;;;-139.48;100.00;61774.03;4994209;28;20109;-73
2022/03/09 07:12:57;;;;;;;26.80;10.95;;;;;;;-139.48;100.00;61774.03;4994009;28;20064;-72
2022/03/09 07:15:40;;;;;;;;;;;;;;;-139.48;100.00;61774.03;4994076;28;20060;-72
2022/03/09 07:18:24;;;;;;;19.88;10.50;;;;;;;-139.48;100.00;61774.03;4994267;28;19967;-72
2022/03/09 07:21:08;;;;;;;19.55;10.43;;;;;;;-139.48;100.00;61774.03;4979759;28;20085;-71
2022/03/09 07:23:52;;;;;;;22.40;10.32;;;;;;;-139.48;100.00;61774.03;4993016;28;20069;-73
2022/03/09 07:26:40;;;;;;;;;;;;;;;-139.48;100.00;61774.03;4994455;28;20159;-72
2022/03/09 07:29:24;;;;;;;19.55;9.57;;;;;;;-139.48;100.00;61774.03;4992926;28;19920;-73
2022/03/09 07:32:08;;;;;;;;;;;;;;;-139.48;100.00;61774.03;4993084;28;20048;-73
2022/03/09 07:34:52;;;;;;;24.60;10.80;;;;;;;-139.48;100.00;61774.03;4992533;28;20384;-72
2022/03/09 07:37:37;;;;;;;;;;;;;;;-139.48;100.00;61774.03;4993919;28;20506;-69
2022/03/09 07:40:21;;;;;;;19.17;10.57;;;;;;;-139.48;100.00;61774.03;4993823;28;20352;-73
2022/03/09 07:43:05;;;;;;;18.45;10.15;;;;;;;-139.48;100.00;61774.03;4992617;28;20053;-71
2022/03/09 07:45:48;;;;;;;18.42;9.65;;;;;;;-139.48;100.00;61774.03;4993536;28;20097;-74
2022/03/09 07:48:32;;;;;;;24.80;12.15;;;;;;;-139.48;100.00;61774.03;4992636;28;20546;-72
2022/03/09 07:51:16;;;;;;;23.23;12.52;;;;;;;-139.48;100.00;61774.03;4993605;28;20104;-71
2022/03/09 07:54:00;;;;;;;;;;;;;;;-139.48;100.00;61774.03;4993800;28;20064;-72
2022/03/09 07:56:44;;;;;;;25.52;12.10;;;;;;;-139.48;100.00;61774.03;4993330;28;20397;-73
2022/03/09 07:59:28;;;;;;;;;;;;;;;-139.48;100.00;61774.03;4993247;28;20049;-73
2022/03/09 08:02:12;;;;;;;14.02;7.28;;;;;;;-139.48;100.00;61774.03;4992289;28;19920;-72
2022/03/09 08:04:57;;;;;;;17.05;9.77;;;;;;;-139.48;100.00;61774.03;4993501;28;20129;-73
2022/03/09 08:07:41;;;;;;;18.95;9.95;;;;;;;-139.48;100.00;61774.03;4992446;28;20061;-74
2022/03/09 08:10:25;;;;;;;19.10;9.30;;;;;;;-139.48;100.00;61774.03;4992578;28;20068;-73
2022/03/09 08:13:09;;;;;;;21.08;9.55;;;;;;;-139.48;100.00;61774.03;4992916;28;20057;-73
2022/03/09 08:15:52;;;;;;;;;;;;;;;-139.48;100.00;61774.03;4992786;28;20048;-72
2022/03/09 08:18:37;;;;;;;18.60;8.77;;;;;;;-139.48;100.00;61774.03;4993327;28;19981;-74
2022/03/09 08:21:21;;;;;;;23.80;12.35;;;;;;;-139.48;100.00;61774.03;4992919;28;20050;-72
2022/03/09 08:24:06;;;;;;;20.90;12.55;;;;;;;-139.48;100.00;61774.03;4993100;28;20041;-70
2022/03/09 08:26:50;;;;;;;25.40;13.75;;;;;;;-139.48;100.00;61774.03;4992244;28;20108;-74
2022/03/09 08:29:34;;;;;;;25.13;12.40;;;;;;;-139.48;87.83;61774.03;4993164;28;20128;-74
2022/03/09 08:32:21;;;;;;;20.77;10.85;;;;;;;2.13;74.72;101307.56;4993399;28;20049;-74
2022/03/09 08:35:06;;;;;;;24.48;13.32;;;;;;;2.25;73.63;101301.75;4992187;28;20125;-74
2022/03/09 08:37:50;;;;;;;18.15;9.38;;;;;;;2.35;71.10;101302.19;4992225;28;20069;-73
2022/03/09 08:40:34;;;;;;;25.55;14.25;;;;;;;2.49;69.95;101296.25;4993228;28;20165;-74
2022/03/09 08:43:18;;;;;;;;;;;;;;;2.63;67.94;101298.28;4993575;28;20046;-74
2022/03/09 08:46:01;;;;;;;20.20;10.60;;;;;;;2.75;65.94;101297.72;4992049;28;19964;-74
2022/03/09 08:48:46;;;;;;;19.38;9.65;;;;;;;2.86;65.71;101290.16;4994932;28;20100;-73
2022/03/09 08:51:30;;;;;;;24.27;13.50;;;;;;;3.00;65.17;101293.00;4996856;28;20143;-74
2022/03/09 08:54:14;;;;;;;23.38;10.98;;;;;;;3.13;64.89;101295.00;4995842;28;20101;-74
2022/03/09 08:56:58;;;;;;;19.05;10.82;;;;;;;3.27;65.12;101297.84;4995779;28;20130;-75
2022/03/09 08:59:44;;;;;;;19.48;10.32;;;;;;;3.43;63.40;101297.94;4996416;28;20479;-75
2022/03/09 09:02:29;;;;;;;39.72;21.15;;;;;;;3.63;62.27;101297.78;4996452;28;20517;-75
2022/03/09 09:05:13;;;;;;;24.63;11.02;;;;;;;3.81;62.03;101295.13;4996609;28;20105;-75
2022/03/09 09:07:57;;;;;;;19.73;10.88;;;;;;;3.95;60.01;101294.44;4996824;28;20131;-75
2022/03/09 09:10:41;;;;;;;88.88;49.97;;;;;;;4.31;58.49;101293.38;4996446;28;20500;-75
2022/03/09 09:13:25;;;;;;;20.45;11.35;;;;;;;4.51;55.96;101297.59;4994987;28;20089;-75
2022/03/09 09:16:09;;;;;;;21.17;11.30;;;;;;;4.78;54.47;101291.69;4995447;28;20112;-75
2022/03/09 09:18:53;;;;;;;17.10;10.07;;;;;;;4.97;53.35;101291.56;4995279;28;20073;-75
2022/03/09 09:21:37;;;;;;;16.13;9.18;;;;;;;5.22;53.46;101292.75;4995224;28;20482;-75
2022/03/09 09:24:21;;;;;;;31.40;11.00;;;;;;;5.59;52.39;101292.34;4995300;28;20132;-75
2022/03/09 09:27:05;;;;;;;20.30;9.65;;;;;;;5.79;51.49;101290.28;4996373;28;20417;-75
2022/03/09 09:29:49;;;;;;;;;;;;;;;6.22;50.61;101292.09;4996553;28;20050;-75
2022/03/09 09:32:33;;;;;;;41.78;28.77;;;;;;;7.37;48.06;101283.03;4995918;28;20297;-75
2022/03/09 09:35:17;;;;;;;21.10;14.13;;;;;;;8.72;44.10;101278.06;4996037;28;20053;-74
2022/03/09 09:38:06;;;;;;;45.35;29.23;;;;;;;10.21;40.33;101272.22;4995033;28;20056;-75
2022/03/09 09:40:53;;;;;;;19.67;12.77;;;;;;;12.42;39.18;101258.28;4995974;28;20049;-75
2022/03/09 09:43:38;;;;;;;20.23;11.25;;;;;;;12.42;39.18;101258.28;4994811;28;20092;-75
2022/03/09 09:46:22;;;;;;;16.88;10.77;;;;;;;16.26;29.79;101253.44;4994841;28;20100;-75
2022/03/09 09:49:08;;;;;;;16.45;11.40;;;;;;;17.57;28.38;101256.50;4995800;28;20137;-75
2022/03/09 09:51:53;;;;;;;31.67;20.33;;;;;;;18.21;27.61;101248.47;4994636;28;20050;-75
2022/03/09 09:54:37;;;;;;;15.90;12.00;;;;;;;18.65;25.89;101253.34;4994379;28;20057;-75
2022/03/09 09:57:21;;;;;;;;;;;;;;;17.89;26.14;101256.56;4996115;28;20052;-75
2022/03/09 10:00:07;;;;;;;17.70;12.07;;;;;;;17.78;26.54;101248.81;4994044;28;19920;-75
2022/03/09 10:02:51;;;;;;;18.20;11.65;;;;;;;19.51;25.95;101244.22;4994498;28;20071;-75
2022/03/09 10:05:35;;;;;;;20.30;14.10;;;;;;;20.26;23.33;101240.66;4995850;28;20041;-75
2022/03/09 10:08:19;;;;;;;;;;;;;;;18.60;25.14;101241.38;4995840;28;20046;-75
2022/03/09 10:11:04;;;;;;;21.13;13.45;;;;;;;18.72;26.58;101240.84;4995905;28;20309;-74
2022/03/09 10:13:47;;;;;;;23.23;14.55;;;;;;;20.18;24.00;101239.88;4995426;28;20474;-76
2022/03/09 10:16:31;;;;;;;17.83;12.55;;;;;;;20.34;22.96;101245.16;4994349;28;20116;-75
2022/03/09 10:19:28;;;;;;;16.15;13.10;;;;;;;20.14;23.73;101247.53;4980898;28;20533;-75
2022/03/09 10:22:44;;;;;;;33.72;23.33;;;;;;;-139.48;100.00;61774.03;4980621;28;20064;-75
2022/03/09 10:25:28;;;;;;;14.10;11.88;;;;;;;-139.48;100.00;61774.03;4996243;28;20057;-75
2022/03/09 10:28:12;;;;;;;16.30;12.57;;;;;;;-139.48;100.00;61774.03;4996410;28;20056;-75
2022/03/09 10:30:56;;;;;;;16.33;12.93;;;;;;;-139.48;100.00;61774.03;4982529;28;20069;-75
2022/03/09 10:33:40;;;;;;;19.05;14.77;;;;;;;-139.48;100.00;61774.03;4996106;28;20069;-75
2022/03/09 10:36:24;;;;;;;28.98;21.38;;;;;;;-139.48;100.00;61774.03;4995286;28;20051;-75
2022/03/09 10:39:15;;;;;;;26.25;18.23;;;;;;;-139.48;100.00;61774.03;4993910;28;20053;-75
2022/03/09 10:41:59;;;;;;;21.05;14.90;;;;;;;-139.48;100.00;61774.03;4994753;28;20113;-75
2022/03/09 10:44:48;;;;;;;27.52;20.77;;;;;;;-139.48;100.00;61774.03;4993651;28;20060;-74
2022/03/09 10:47:33;;;;;;;21.77;15.20;;;;;;;-139.48;100.00;61774.03;4993544;28;20430;-75
2022/03/09 10:50:20;;;;;;;16.52;13.02;;;;;;;-139.48;100.00;61774.03;5007753;28;20104;-75
2022/03/09 10:53:04;;;;;;;16.77;14.10;;;;;;;-139.48;100.00;61774.03;4993279;28;20410;-75
2022/03/09 10:55:49;;;;;;;21.38;14.70;;;;;;;-139.48;100.00;61774.03;4994529;28;20057;-75
2022/03/09 10:58:39;;;;;;;22.70;14.07;;;;;;;-139.48;100.00;61774.03;4994400;28;20115;-75
2022/03/09 11:01:25;;;;;;;21.00;14.30;;;;;;;-139.48;100.00;61774.03;4994287;28;20096;-75
2022/03/09 11:04:14;;;;;;;17.15;13.43;;;;;;;-139.48;100.00;61774.03;4993373;28;20160;-74
2022/03/09 11:06:58;;;;;;;18.60;14.63;;;;;;;-139.48;100.00;61774.03;4993541;28;20120;-75
2022/03/09 11:09:42;;;;;;;23.63;18.88;;;;;;;-139.48;100.00;61774.03;4994348;28;20068;-70
2022/03/09 11:12:27;;;;;;;19.77;15.80;;;;;;;-139.48;100.00;61774.03;4992116;28;20049;-75
2022/03/09 11:15:13;;;;;;;20.88;14.57;;;;;;;-139.48;100.00;61774.03;4992925;28;20414;-75
2022/03/09 11:17:58;;;;;;;19.80;16.05;;;;;;;-139.48;100.00;61774.03;4994262;28;20097;-75
2022/03/09 11:20:42;;;;;;;53.55;47.97;;;;;;;-139.48;100.00;61774.03;4993878;28;20469;-75
2022/03/09 11:23:27;;;;;;;25.08;22.15;;;;;;;-139.48;100.00;61774.03;4994280;28;20491;-75
2022/03/09 11:26:16;;;;;;;17.15;14.95;;;;;;;-139.48;100.00;61774.03;4992952;28;20049;-74
2022/03/09 11:29:02;;;;;;;21.15;16.70;;;;;;;-139.48;100.00;61774.03;4992978;28;20097;-75
2022/03/09 11:31:52;;;;;;;16.65;14.70;;;;;;;-139.48;100.00;61774.03;4978977;28;20045;-72
2022/03/09 11:34:43;;;;;;;18.25;14.38;;;;;;;-139.48;100.00;61774.03;4992834;28;20125;-75
2022/03/09 11:37:35;;;;;;;19.10;14.23;;;;;;;20.14;23.73;101247.53;4993822;28;20128;-75
2022/03/09 11:40:19;;;;;;;19.30;15.18;;;;;;;-139.48;100.00;61774.03;4993756;28;20053;-75
2022/03/09 11:43:27;;;;;;;17.88;13.98;;;;;;;-139.48;100.00;61774.03;4992750;28;20565;-75
2022/03/09 11:46:11;;;;;;;16.60;14.55;;;;;;;-139.48;100.00;61774.03;4992679;28;20081;-75
2022/03/09 11:48:57;;;;;;;17.67;15.77;;;;;;;20.14;23.73;101247.53;4993643;28;20142;-75
2022/03/09 11:52:07;;;;;;;21.80;16.63;;;;;;;20.14;23.73;101247.53;4992840;28;20196;-74
2022/03/09 11:54:55;;;;;;;21.65;15.77;;;;;;;31.03;14.32;101177.25;4992410;28;20088;-75
2022/03/09 11:57:45;;;;;;;20.15;15.68;;;;;;;29.33;14.44;101192.75;4993600;28;20053;-74
2022/03/09 12:00:29;;;;;;;18.38;15.50;;;;;;;29.67;15.28;101185.47;4993523;28;20052;-74
2022/03/09 12:03:40;;;;;;;19.30;15.63;;;;;;;30.62;14.71;101180.53;4992377;28;20060;-74
2022/03/09 12:06:41;;;;;;;18.00;14.73;;;;;;;29.87;15.16;101183.09;4993306;28;20061;-74
2022/03/09 12:09:53;;;;;;;19.02;15.45;;;;;;;28.66;15.26;101179.72;4993415;28;20109;-74
2022/03/09 12:12:58;;;;;;;18.83;15.90;;;;;;;30.80;13.95;101173.91;4993143;28;20175;-74
2022/03/09 12:16:00;;;;;;;20.08;17.05;;;;;;;28.35;15.25;101174.59;4993185;28;20051;-74
2022/03/09 12:19:05;;;;;;;22.90;17.05;;;;;;;28.96;15.12;101172.19;4993093;28;20454;-74
2022/03/09 12:21:50;;;;;;;25.13;18.15;;;;;;;29.57;14.92;101172.34;4994985;28;20057;-74
2022/03/09 12:24:39;;;;;;;18.48;16.20;;;;;;;30.35;14.57;101170.44;4996489;28;20053;-74
2022/03/09 12:27:24;;;;;;;26.15;22.50;;;;;;;30.36;15.53;101166.63;4983243;28;20108;-74
2022/03/09 12:30:36;;;;;;;24.98;17.52;;;;;;;29.24;15.15;101152.19;4996123;28;20045;-74
2022/03/09 12:33:28;;;;;;;21.85;18.60;;;;;;;27.21;16.51;101167.69;4996004;28;20077;-74
2022/03/09 12:36:18;;;;;;;25.33;18.60;;;;;;;24.77;17.84;101165.56;4995942;28;20509;-75
2022/03/09 12:39:05;;;;;;;26.38;18.95;;;;;;;24.74;18.33;101157.81;4997393;28;20109;-74
2022/03/09 12:41:54;;;;;;;25.05;18.00;;;;;;;24.70;18.05;101162.00;4995745;28;20101;-74
2022/03/09 12:44:38;;;;;;;24.67;18.35;;;;;;;24.73;18.01;101156.13;4997040;28;20049;-74